createdAt,value
2023-04-01T00:01:20.308Z,34.05
2023-04-01T00:03:49.378Z,44.30
2023-04-01T00:06:20.114Z,42.22
2023-04-01T00:08:48.832Z,39.10
2023-04-01T00:11:17.567Z,34.42
2023-04-01T00:13:51.201Z,44.60
2023-04-01T00:16:21.625Z,49.13
2023-04-01T00:18:51.892Z,56.97
2023-04-01T00:21:21.580Z,51.58
2023-04-01T00:23:50.209Z,49.70
2023-04-01T00:26:21.497Z,43.08
2023-04-01T00:28:52.153Z,42.92
2023-04-01T00:31:21.740Z,40.70
2023-04-01T00:33:50.683Z,39.83
2023-04-01T00:36:22.619Z,34.17
2023-04-01T00:38:52.794Z,31.45
2023-04-01T00:41:22.771Z,32.30
2023-04-01T00:43:54.049Z,28.77
2023-04-01T00:46:24.101Z,30.98
2023-04-01T00:48:57.033Z,28.92
2023-04-01T00:51:29.225Z,33.33
2023-04-01T00:54:00.503Z,31.48
2023-04-01T00:56:33.022Z,29.65
2023-04-01T00:59:05.760Z,30.40
2023-04-01T01:01:35.712Z,30.63
2023-04-01T01:04:04.518Z,27.38
2023-04-01T01:06:45.486Z,25.17
2023-04-01T01:09:30.516Z,24.88
2023-04-01T01:12:09.048Z,23.60
2023-04-01T01:14:52.303Z,25.02
2023-04-01T01:17:29.952Z,23.17
2023-04-01T01:20:26.630Z,25.85
2023-04-01T01:23:10.237Z,40.33
2023-04-01T01:25:46.245Z,27.77
2023-04-01T01:28:30.685Z,26.52
2023-04-01T01:31:10.561Z,23.80
2023-04-01T01:33:53.486Z,21.02
2023-04-01T01:36:24.471Z,21.08
2023-04-01T01:38:53.992Z,24.70
2023-04-01T01:41:24.344Z,23.20
2023-04-01T01:43:55.993Z,24.42
2023-04-01T01:46:28.498Z,21.88
2023-04-01T01:48:58.837Z,24.02
2023-04-01T01:51:30.655Z,21.98
2023-04-01T01:54:03.221Z,22.83
2023-04-01T01:56:34.621Z,25.70
2023-04-01T01:59:07.486Z,22.63
2023-04-01T02:01:41.629Z,22.55
2023-04-01T02:04:16.034Z,24.48
2023-04-01T02:06:50.782Z,23.88
2023-04-01T02:09:21.182Z,26.73
2023-04-01T02:11:53.526Z,25.40
2023-04-01T02:14:25.001Z,24.73
2023-04-01T02:16:58.698Z,24.60
2023-04-01T02:19:33.764Z,25.88
2023-04-01T02:22:08.835Z,27.67
2023-04-01T02:24:40.659Z,27.38
2023-04-01T02:27:09.371Z,27.75
2023-04-01T02:29:38.088Z,27.58
2023-04-01T02:32:10.722Z,23.70
2023-04-01T02:34:39.642Z,24.13
2023-04-01T02:37:09.754Z,24.77
2023-04-01T02:39:38.193Z,23.58
2023-04-01T02:42:07.099Z,28.45
2023-04-01T02:44:35.565Z,28.10
2023-04-01T02:47:04.282Z,27.75
2023-04-01T02:49:32.886Z,25.08
2023-04-01T02:52:01.320Z,25.58
2023-04-01T02:54:31.167Z,22.02
2023-04-01T02:56:59.652Z,22.50
2023-04-01T02:59:28.116Z,20.17
2023-04-01T03:01:56.715Z,21.13
2023-04-01T03:04:25.160Z,20.20
2023-04-01T03:06:54.292Z,22.30
2023-04-01T03:09:22.730Z,21.05
2023-04-01T03:11:52.688Z,17.75
2023-04-01T03:14:21.327Z,21.48
2023-04-01T03:16:49.858Z,17.05
2023-04-01T03:19:18.512Z,17.95
2023-04-01T03:21:46.932Z,15.25
2023-04-01T03:24:15.573Z,14.50
2023-04-01T03:26:44.040Z,14.52
2023-04-01T03:29:16.753Z,16.10
2023-04-01T03:31:48.682Z,17.23
2023-04-01T03:34:17.100Z,17.13
2023-04-01T03:36:45.778Z,18.65
2023-04-01T03:39:14.399Z,15.05
2023-04-01T03:41:43.832Z,16.98
2023-04-01T03:44:14.575Z,15.85
2023-04-01T03:46:43.711Z,16.15
2023-04-01T03:49:13.518Z,18.40
2023-04-01T03:51:43.204Z,14.15
2023-04-01T03:54:12.188Z,18.50
2023-04-01T03:56:41.234Z,17.20
2023-04-01T03:59:10.587Z,23.90
2023-04-01T04:01:41.257Z,18.65
2023-04-01T04:04:12.946Z,18.10
2023-04-01T04:06:41.580Z,23.75
2023-04-01T04:09:10.061Z,20.30
2023-04-01T04:11:38.496Z,18.02
2023-04-01T04:14:07.131Z,18.55
2023-04-01T04:16:38.355Z,17.05
2023-04-01T04:19:08.510Z,18.67
2023-04-01T04:21:37.631Z,17.77
2023-04-01T04:24:06.741Z,19.98
2023-04-01T04:26:55.200Z,22.50
2023-04-01T04:29:23.944Z,18.60
2023-04-01T04:31:53.069Z,18.77
2023-04-01T04:34:23.455Z,16.65
2023-04-01T04:36:52.258Z,19.27
2023-04-01T04:39:21.782Z,20.10
2023-04-01T04:41:51.301Z,17.58
2023-04-01T04:44:19.949Z,19.85
2023-04-01T04:46:48.718Z,20.13
2023-04-01T04:49:19.043Z,18.30
2023-04-01T04:51:49.259Z,16.85
2023-04-01T04:54:19.380Z,18.73
2023-04-01T04:56:54.465Z,21.08
2023-04-01T04:59:24.428Z,25.17
2023-04-01T05:02:13.479Z,29.77
2023-04-01T05:04:42.006Z,23.75
2023-04-01T05:07:14.061Z,18.52
2023-04-01T05:09:42.691Z,21.48
2023-04-01T05:12:12.769Z,21.08
2023-04-01T05:14:57.510Z,24.23
2023-04-01T05:17:26.493Z,23.23
2023-04-01T05:19:55.499Z,21.02
2023-04-01T05:22:25.497Z,20.25
2023-04-01T05:24:54.520Z,21.55
2023-04-01T05:27:23.533Z,21.17
2023-04-01T05:29:52.115Z,23.05
2023-04-01T05:32:39.178Z,21.35
2023-04-01T05:35:08.632Z,21.08
2023-04-01T05:37:39.116Z,19.10
2023-04-01T05:40:08.859Z,19.27
2023-04-01T05:42:38.445Z,19.05
2023-04-01T05:45:09.731Z,18.80
2023-04-01T05:48:04.320Z,18.80
2023-04-01T05:50:39.286Z,18.13
2023-04-01T05:53:09.300Z,19.77
2023-04-01T05:55:39.653Z,19.35
2023-04-01T05:58:08.487Z,20.70
2023-04-01T06:00:39.316Z,20.17
2023-04-01T06:03:08.080Z,18.48
2023-04-01T06:05:41.589Z,18.00
2023-04-01T06:08:17.631Z,18.27
2023-04-01T06:11:02.926Z,18.25
2023-04-01T06:13:54.368Z,19.38
2023-04-01T06:16:36.424Z,18.17
2023-04-01T06:19:26.039Z,18.60
2023-04-01T06:22:28.427Z,20.90
2023-04-01T06:25:32.017Z,19.27
2023-04-01T06:28:24.003Z,18.67
2023-04-01T06:30:58.708Z,16.73
2023-04-01T06:33:49.526Z,19.88
2023-04-01T06:36:34.653Z,18.25
2023-04-01T06:39:17.682Z,25.20
2023-04-01T06:42:12.697Z,21.30
2023-04-01T06:44:56.292Z,19.70
2023-04-01T06:47:53.722Z,18.88
2023-04-01T06:50:48.784Z,20.95
2023-04-01T06:53:58.978Z,19.98
2023-04-01T07:00:15.339Z,19.33
2023-04-01T07:02:54.685Z,20.65
2023-04-01T07:05:25.327Z,17.30
2023-04-01T07:08:00.062Z,16.48
2023-04-01T07:10:38.121Z,19.35
2023-04-01T07:13:29.656Z,18.88
2023-04-01T07:16:11.159Z,17.27
2023-04-01T07:18:46.720Z,16.98
2023-04-01T07:21:24.792Z,16.50
2023-04-01T07:23:58.946Z,17.98
2023-04-01T07:26:37.662Z,18.23
2023-04-01T07:29:14.769Z,17.65
2023-04-01T07:32:15.392Z,18.52
2023-04-01T07:34:57.148Z,21.98
2023-04-01T07:37:33.495Z,17.80
2023-04-01T07:40:16.192Z,14.55
2023-04-01T07:42:56.691Z,14.35
2023-04-01T07:45:36.064Z,15.48
2023-04-01T07:48:22.872Z,14.48
2023-04-01T07:51:00.269Z,12.57
2023-04-01T07:53:37.634Z,12.18
2023-04-01T07:56:12.279Z,13.98
2023-04-01T07:58:55.699Z,13.15
2023-04-01T08:02:05.453Z,12.05
2023-04-01T08:04:58.598Z,15.68
2023-04-01T08:07:33.721Z,16.23
2023-04-01T08:10:28.808Z,16.10
2023-04-01T08:13:24.393Z,16.15
2023-04-01T08:16:37.631Z,14.93
2023-04-01T08:19:23.619Z,15.65
2023-04-01T08:22:00.930Z,18.65
2023-04-01T08:24:47.107Z,17.42
2023-04-01T08:27:27.200Z,14.02
2023-04-01T08:30:01.972Z,17.02
2023-04-01T08:32:37.613Z,16.55
2023-04-01T08:35:18.724Z,15.45
2023-04-01T08:37:52.609Z,16.75
2023-04-01T08:40:54.284Z,16.67
2023-04-01T08:46:28.213Z,19.90
2023-04-01T08:49:20.536Z,19.90
2023-04-01T08:52:08.510Z,15.27
2023-04-01T08:55:12.954Z,20.40
2023-04-01T08:58:26.598Z,17.73
2023-04-01T09:01:41.852Z,17.50
2023-04-01T09:04:55.033Z,14.73
2023-04-01T09:07:36.234Z,15.75
2023-04-01T09:10:35.024Z,17.35
2023-04-01T09:13:39.634Z,18.67
2023-04-01T09:16:27.069Z,15.80
2023-04-01T09:19:24.036Z,15.00
2023-04-01T09:22:22.114Z,16.27
2023-04-01T09:25:17.493Z,22.85
2023-04-01T09:27:58.239Z,18.20
2023-04-01T09:30:55.256Z,19.10
2023-04-01T09:34:13.351Z,18.58
2023-04-01T09:37:21.113Z,17.15
2023-04-01T09:40:19.228Z,22.58
2023-04-01T09:43:18.640Z,19.42
2023-04-01T09:45:59.650Z,23.00
2023-04-01T09:48:42.781Z,20.48
2023-04-01T09:51:25.403Z,22.70
2023-04-01T09:54:10.253Z,20.67
2023-04-01T09:57:15.496Z,22.52
2023-04-01T10:00:24.127Z,22.00
2023-04-01T10:03:40.137Z,24.52
2023-04-01T10:06:52.445Z,18.33
2023-04-01T10:10:00.194Z,21.38
2023-04-01T10:13:10.480Z,28.15
2023-04-01T10:16:17.455Z,32.15
2023-04-01T10:19:17.693Z,18.25
2023-04-01T10:22:20.085Z,16.40
2023-04-01T10:25:19.488Z,22.50
2023-04-01T10:28:12.345Z,19.50
2023-04-01T10:31:38.346Z,18.80
2023-04-01T10:34:40.609Z,13.27
2023-04-01T10:37:26.380Z,15.15
2023-04-01T10:40:28.345Z,10.55
2023-04-01T10:44:00.310Z,12.60
2023-04-01T10:47:04.794Z,10.57
2023-04-01T10:50:11.477Z,10.63
2023-04-01T10:53:29.629Z,10.85
2023-04-01T10:56:45.815Z,11.80
2023-04-01T10:59:47.770Z,10.77
2023-04-01T11:03:21.996Z,10.25
2023-04-01T11:06:58.138Z,9.30
2023-04-01T11:10:10.264Z,10.88
2023-04-01T11:13:19.994Z,12.57
2023-04-01T11:16:26.111Z,10.43
2023-04-01T11:19:26.684Z,17.05
2023-04-01T11:22:27.246Z,10.35
2023-04-01T11:25:27.587Z,13.00
2023-04-01T11:28:51.389Z,15.00
2023-04-01T11:31:43.427Z,11.07
2023-04-01T11:34:27.247Z,13.02
2023-04-01T11:37:08.008Z,8.70
2023-04-01T11:39:53.134Z,8.95
2023-04-01T11:42:49.060Z,9.75
2023-04-01T11:45:51.293Z,14.70
2023-04-01T11:48:35.431Z,13.18
2023-04-01T11:51:23.525Z,14.68
2023-04-01T11:54:10.209Z,11.02
2023-04-01T11:57:05.781Z,10.13
2023-04-01T12:00:04.578Z,12.88
2023-04-01T12:02:57.863Z,12.57
2023-04-01T12:05:45.085Z,12.18
2023-04-01T12:08:27.432Z,11.73
2023-04-01T12:11:02.820Z,9.95
2023-04-01T12:13:42.565Z,11.25
2023-04-01T12:16:37.279Z,10.55
2023-04-01T12:19:17.476Z,9.77
2023-04-01T12:21:54.870Z,14.05
2023-04-01T12:24:48.048Z,18.90
2023-04-01T12:27:57.593Z,19.20
2023-04-01T12:30:49.144Z,12.10
2023-04-01T12:33:47.710Z,12.38
2023-04-01T12:36:26.177Z,12.57
2023-04-01T12:39:14.033Z,10.13
2023-04-01T12:41:48.809Z,10.43
2023-04-01T12:44:40.520Z,12.43
2023-04-01T12:47:44.424Z,11.73
2023-04-01T12:50:29.147Z,13.45
2023-04-01T12:53:26.360Z,11.57
2023-04-01T12:55:54.874Z,13.35
2023-04-01T12:59:01.127Z,12.90
2023-04-01T13:01:46.987Z,13.40
2023-04-01T13:04:36.169Z,13.55
2023-04-01T13:07:23.804Z,14.38
2023-04-01T13:09:59.826Z,14.02
2023-04-01T13:12:59.276Z,10.52
2023-04-01T13:15:43.257Z,15.10
2023-04-01T13:18:24.550Z,12.40
2023-04-01T13:21:03.338Z,15.32
2023-04-01T13:23:44.258Z,16.65
2023-04-01T13:26:20.962Z,18.73
2023-04-01T13:28:55.469Z,19.52
2023-04-01T13:31:36.479Z,10.65
2023-04-01T13:34:17.731Z,17.38
2023-04-01T13:36:58.187Z,11.15
2023-04-01T13:39:47.660Z,15.63
2023-04-01T13:42:23.613Z,12.60
2023-04-01T13:44:57.933Z,12.23
2023-04-01T13:48:20.725Z,15.50
2023-04-01T13:51:17.839Z,11.65
2023-04-01T13:54:16.959Z,13.73
2023-04-01T13:56:56.380Z,16.35
2023-04-01T14:00:01.005Z,14.27
2023-04-01T14:02:55.856Z,12.25
2023-04-01T14:05:46.497Z,11.38
2023-04-01T14:08:24.330Z,13.02
2023-04-01T14:11:06.752Z,12.15
2023-04-01T14:13:46.205Z,9.00
2023-04-01T14:16:55.263Z,14.68
2023-04-01T14:19:37.300Z,12.63
2023-04-01T14:22:16.328Z,12.05
2023-04-01T14:25:22.164Z,11.40
2023-04-01T14:28:02.857Z,13.18
2023-04-01T14:30:59.240Z,11.60
2023-04-01T14:33:45.369Z,15.13
2023-04-01T14:36:37.944Z,9.60
2023-04-01T14:39:23.797Z,15.65
2023-04-01T14:42:15.374Z,14.73
2023-04-01T14:45:15.529Z,13.13
2023-04-01T14:47:57.222Z,12.30
2023-04-01T14:50:32.065Z,14.05
2023-04-01T14:53:16.128Z,15.02
2023-04-01T14:55:52.495Z,14.88
2023-04-01T14:58:26.349Z,12.80
2023-04-01T15:01:09.335Z,13.27
2023-04-01T15:03:51.219Z,16.45
2023-04-01T15:07:01.788Z,19.15
2023-04-01T15:09:41.103Z,15.60
2023-04-01T15:12:20.986Z,16.83
2023-04-01T15:15:00.429Z,13.15
2023-04-01T15:17:59.659Z,14.82
2023-04-01T15:20:44.928Z,12.60
2023-04-01T15:23:28.253Z,13.65
2023-04-01T15:26:20.032Z,15.27
2023-04-01T15:28:59.596Z,13.90
2023-04-01T15:31:34.965Z,14.82
2023-04-01T15:34:27.779Z,13.20
2023-04-01T15:37:02.550Z,14.15
2023-04-01T15:39:49.195Z,12.23
2023-04-01T15:42:38.478Z,12.77
2023-04-01T15:45:36.446Z,15.02
2023-04-01T15:48:27.196Z,13.02
2023-04-01T15:51:11.786Z,14.85
2023-04-01T15:53:55.112Z,15.30
2023-04-01T15:56:41.847Z,14.55
2023-04-01T15:59:23.189Z,15.48
2023-04-01T16:02:01.518Z,15.32
2023-04-01T16:04:53.357Z,16.25
2023-04-01T16:07:51.132Z,17.50
2023-04-01T16:10:33.208Z,12.80
2023-04-01T16:13:17.535Z,14.18
2023-04-01T16:15:56.435Z,16.80
2023-04-01T16:18:43.041Z,18.67
2023-04-01T16:21:23.413Z,14.43
2023-04-01T16:23:58.205Z,13.38
2023-04-01T16:26:37.438Z,17.25
2023-04-01T16:29:14.232Z,15.77
2023-04-01T16:31:49.853Z,14.90
2023-04-01T16:34:23.022Z,15.90
2023-04-01T16:36:55.006Z,16.75
2023-04-01T16:39:41.871Z,17.10
2023-04-01T16:42:22.714Z,16.42
2023-04-01T16:44:57.777Z,14.60
2023-04-01T16:47:32.524Z,18.45
2023-04-01T16:50:07.986Z,17.17
2023-04-01T16:52:50.838Z,18.48
2023-04-01T16:55:20.931Z,12.90
2023-04-01T16:57:53.930Z,17.63
2023-04-01T17:00:29.008Z,13.00
2023-04-01T17:03:06.960Z,16.48
2023-04-01T17:06:04.113Z,14.05
2023-04-01T17:09:10.060Z,15.48
2023-04-01T17:11:45.492Z,15.85
2023-04-01T17:14:24.997Z,14.50
2023-04-01T17:17:12.169Z,15.50
2023-04-01T17:20:04.718Z,15.43
2023-04-01T17:22:40.189Z,16.45
2023-04-01T17:25:30.691Z,18.13
2023-04-01T17:28:06.625Z,15.05
2023-04-01T17:30:41.265Z,15.85
2023-04-01T17:33:39.852Z,15.43
2023-04-01T17:36:18.930Z,17.50
2023-04-01T17:39:06.710Z,15.10
2023-04-01T17:41:48.271Z,17.23
2023-04-01T17:44:33.242Z,14.80
2023-04-01T17:47:22.417Z,15.05
2023-04-01T17:50:00.462Z,16.10
2023-04-01T17:52:34.595Z,16.95
2023-04-01T17:55:24.686Z,17.95
2023-04-01T17:58:00.827Z,14.95
2023-04-01T18:00:50.598Z,14.75
2023-04-01T18:03:54.664Z,14.70
2023-04-01T18:06:28.375Z,15.23
2023-04-01T18:11:41.467Z,16.73
2023-04-01T18:17:11.959Z,15.70
2023-04-01T18:19:56.220Z,15.75
2023-04-01T18:22:31.591Z,18.35
2023-04-01T18:25:08.359Z,15.68
2023-04-01T18:27:42.174Z,15.00
2023-04-01T18:30:17.472Z,14.23
2023-04-01T18:32:52.471Z,14.73
2023-04-01T18:35:31.657Z,15.70
2023-04-01T18:38:07.145Z,16.80
2023-04-01T18:40:40.026Z,19.52
2023-04-01T18:43:19.395Z,17.38
2023-04-01T18:45:56.334Z,16.23
2023-04-01T18:48:44.742Z,18.45
2023-04-01T18:51:19.283Z,15.98
2023-04-01T18:53:55.992Z,19.10
2023-04-01T18:56:32.378Z,15.90
2023-04-01T18:59:09.273Z,17.83
2023-04-01T19:01:43.322Z,19.25
2023-04-01T19:04:21.284Z,15.73
2023-04-01T19:06:53.006Z,17.42
2023-04-01T19:09:26.174Z,17.75
2023-04-01T19:12:29.698Z,20.80
2023-04-01T19:15:11.870Z,20.90
2023-04-01T19:17:51.904Z,17.90
2023-04-01T19:23:25.882Z,20.15
2023-04-01T19:25:57.696Z,17.63
2023-04-01T19:28:38.667Z,17.52
2023-04-01T19:31:18.341Z,17.40
2023-04-01T19:34:02.929Z,17.38
2023-04-01T19:36:41.146Z,17.98
2023-04-01T19:39:29.583Z,46.95
2023-04-01T19:42:02.517Z,19.95
2023-04-01T19:44:43.903Z,19.95
2023-04-01T19:47:23.298Z,18.92
2023-04-01T19:50:03.565Z,15.68
2023-04-01T19:52:36.089Z,15.98
2023-04-01T19:55:21.468Z,19.00
2023-04-01T19:57:57.051Z,16.83
2023-04-01T20:00:32.742Z,19.67
2023-04-01T20:03:08.286Z,18.67
2023-04-01T20:05:48.399Z,19.20
2023-04-01T20:08:24.934Z,20.40
2023-04-01T20:11:06.584Z,26.02
2023-04-01T20:13:47.551Z,19.13
2023-04-01T20:16:17.702Z,17.88
2023-04-01T20:18:54.168Z,19.13
2023-04-01T20:21:34.130Z,20.17
2023-04-01T20:24:32.382Z,19.25
2023-04-01T20:27:10.509Z,19.42
2023-04-01T20:29:57.131Z,19.20
2023-04-01T20:32:45.988Z,17.63
2023-04-01T20:35:32.671Z,17.48
2023-04-01T20:38:17.257Z,21.02
2023-04-01T20:40:50.740Z,18.38
2023-04-01T20:43:59.085Z,20.95
2023-04-01T20:46:39.087Z,21.20
2023-04-01T20:51:50.233Z,18.40
2023-04-01T20:54:39.190Z,22.08
2023-04-01T20:57:13.664Z,22.63
2023-04-01T21:00:06.143Z,24.02
2023-04-01T21:02:54.091Z,18.52
2023-04-01T21:05:42.720Z,20.98
2023-04-01T21:08:17.409Z,20.88
2023-04-01T21:10:54.372Z,18.25
2023-04-01T21:13:40.021Z,21.27
2023-04-01T21:16:26.230Z,22.23
2023-04-01T21:19:10.906Z,20.50
2023-04-01T21:22:09.549Z,16.35
2023-04-01T21:25:12.703Z,26.50
2023-04-01T21:27:53.866Z,21.13
2023-04-01T21:30:59.171Z,19.35
2023-04-01T21:36:15.501Z,19.67
2023-04-01T21:38:59.342Z,19.33
2023-04-01T21:41:51.305Z,21.67
2023-04-01T21:44:36.658Z,21.70
2023-04-01T21:47:52.489Z,22.38
2023-04-01T21:50:48.249Z,19.50
2023-04-01T21:53:45.024Z,22.80
2023-04-01T21:56:48.838Z,22.80
2023-04-01T21:59:49.211Z,20.23
2023-04-01T22:02:57.782Z,20.00
2023-04-01T22:05:31.040Z,23.10
2023-04-01T22:08:09.594Z,18.90
2023-04-01T22:10:44.902Z,23.42
2023-04-01T22:13:20.781Z,18.73
2023-04-01T22:15:58.541Z,19.58
2023-04-01T22:18:35.949Z,21.83
2023-04-01T22:21:11.326Z,22.10
2023-04-01T22:23:49.236Z,21.15
2023-04-01T22:26:23.710Z,21.10
2023-04-01T22:29:01.520Z,21.10
2023-04-01T22:31:37.640Z,20.02
2023-04-01T22:34:16.246Z,19.92
2023-04-01T22:36:55.739Z,23.48
2023-04-01T22:39:40.627Z,21.13
2023-04-01T22:42:22.062Z,19.88
2023-04-01T22:45:04.488Z,21.77
2023-04-01T22:47:42.804Z,19.55
2023-04-01T22:50:19.973Z,20.27
2023-04-01T22:52:51.218Z,22.10
2023-04-01T22:55:26.548Z,19.92
2023-04-01T22:58:00.787Z,18.90
2023-04-01T23:00:36.209Z,18.33
2023-04-01T23:03:14.088Z,20.30
2023-04-01T23:05:50.702Z,20.35
2023-04-01T23:08:52.468Z,19.63
2023-04-01T23:11:27.231Z,19.80
2023-04-01T23:14:05.264Z,21.90
2023-04-01T23:16:41.986Z,22.10
2023-04-01T23:19:18.707Z,18.90
2023-04-01T23:21:54.243Z,20.80
2023-04-01T23:24:30.239Z,19.58
2023-04-01T23:27:04.589Z,25.17
2023-04-01T23:29:39.546Z,19.83
2023-04-01T23:32:16.665Z,22.23
2023-04-01T23:34:51.492Z,22.25
2023-04-01T23:37:22.316Z,24.15
2023-04-01T23:39:52.816Z,23.02
2023-04-01T23:42:25.826Z,21.88
2023-04-01T23:44:56.994Z,23.60
2023-04-01T23:47:29.287Z,25.80
2023-04-01T23:50:03.093Z,23.25
2023-04-01T23:52:39.691Z,24.10
2023-04-01T23:55:16.506Z,25.02
2023-04-01T23:58:16.430Z,26.05
